Time;durP1;ratioP1;P1;durP2;ratioP2;P2;SDS_P1;SDS_P2;PMS_P1;PMS_P2;Temp;Humidity;BMP_temperature;BMP_pressure;BME280_temperature;BME280_humidity;BME280_pressure;Samples;Min_cycle;Max_cycle;Signal;HPM_P1;HPM_P2
2021/10/19 00:00:06;;;;;;;5.45;3.83;;;27.80;73.10;;;;;;4231228;27;20120;-73
2021/10/19 00:02:09;;;;;;;4.32;3.70;;;27.80;73.20;;;;;;4248525;27;20054;-72
2021/10/19 00:04:12;;;;;;;4.57;3.72;;;27.80;73.10;;;;;;4230275;27;20059;-70
2021/10/19 00:06:20;;;;;;;6.10;4.30;;;27.90;73.30;;;;;;4245725;27;20108;-71
2021/10/19 00:08:23;;;;;;;5.45;3.67;;;27.80;73.30;;;;;;4248433;27;20059;-71
2021/10/19 00:10:27;;;;;;;4.10;3.70;;;27.80;73.20;;;;;;4248353;27;20053;-72
2021/10/19 00:12:35;;;;;;;4.85;3.75;;;27.90;73.40;;;;;;4248378;27;20552;-71
2021/10/19 00:14:38;;;;;;;4.30;3.80;;;27.80;73.30;;;;;;4246955;27;20104;-70
2021/10/19 00:16:42;;;;;;;5.25;3.80;;;27.90;73.30;;;;;;4248537;27;20062;-71
2021/10/19 00:18:50;;;;;;;4.60;3.70;;;27.90;73.30;;;;;;4247952;27;20062;-72
2021/10/19 00:20:53;;;;;;;5.85;3.67;;;27.80;73.20;;;;;;4248462;27;20047;-71
2021/10/19 00:22:56;;;;;;;5.55;4.05;;;27.90;73.40;;;;;;4230224;28;20503;-71
2021/10/19 00:25:05;;;;;;;5.55;3.80;;;27.90;73.20;;;;;;4247895;27;20051;-71
2021/10/19 00:27:13;;;;;;;5.32;3.70;;;27.90;73.20;;;;;;4248307;27;20059;-72
2021/10/19 00:29:16;;;;;;;6.00;3.42;;;27.90;73.20;;;;;;4248109;27;20553;-72
2021/10/19 00:31:24;;;;;;;4.00;3.60;;;27.90;73.20;;;;;;4230919;27;20661;-72
2021/10/19 00:33:34;;;;;;;5.13;3.80;;;27.90;73.20;;;;;;4247953;27;20441;-72
2021/10/19 00:35:37;;;;;;;4.32;3.40;;;27.90;73.30;;;;;;4247905;27;20116;-72
2021/10/19 00:37:45;;;;;;;3.63;3.33;;;27.90;73.20;;;;;;4247839;27;20617;-70
2021/10/19 00:39:53;;;;;;;4.45;3.53;;;27.90;73.30;;;;;;4247601;27;20055;-73
2021/10/19 00:42:01;;;;;;;4.15;3.40;;;27.90;73.20;;;;;;4247829;27;20107;-72
2021/10/19 00:44:09;;;;;;;4.07;3.05;;;27.90;73.20;;;;;;4247589;27;20047;-74
2021/10/19 00:46:14;;;;;;;5.15;3.53;;;27.90;72.90;;;;;;4248094;27;20085;-71
2021/10/19 00:48:26;;;;;;;4.80;3.75;;;27.90;73.20;;;;;;4248003;27;20485;-71
2021/10/19 00:50:30;;;;;;;4.95;3.35;;;27.90;73.10;;;;;;4247648;27;20047;-70
2021/10/19 00:52:34;;;;;;;4.38;3.47;;;27.90;72.90;;;;;;4247606;27;20051;-72
2021/10/19 00:54:43;;;;;;;5.18;3.05;;;27.90;73.10;;;;;;4247606;27;20043;-72
2021/10/19 00:56:53;;;;;;;4.38;3.55;;;28.00;73.20;;;;;;4248023;27;20414;-71
2021/10/19 00:58:56;;;;;;;3.78;3.40;;;27.90;73.10;;;;;;4247923;27;20379;-72
2021/10/19 01:01:04;;;;;;;6.97;3.33;;;27.90;73.10;;;;;;4247543;27;20055;-71
2021/10/19 01:03:12;;;;;;;5.95;3.42;;;28.00;73.20;;;;;;4245117;27;20066;-71
2021/10/19 01:05:15;;;;;;;4.38;3.30;;;28.00;73.20;;;;;;4247565;27;20472;-73
2021/10/19 01:07:25;;;;;;;3.83;3.38;;;28.00;73.10;;;;;;4239681;27;20074;-73
2021/10/19 01:09:28;;;;;;;3.22;2.90;;;28.00;73.00;;;;;;4247573;27;20436;-74
2021/10/19 01:11:31;;;;;;;3.67;3.30;;;28.00;73.00;;;;;;4246099;27;20062;-74
2021/10/19 01:13:39;;;;;;;6.30;3.30;;;28.00;72.80;;;;;;4247507;27;20055;-72
2021/10/19 01:15:42;;;;;;;4.65;3.08;;;28.00;73.10;;;;;;4247018;27;20054;-72
2021/10/19 01:17:47;;;;;;;3.60;2.97;;;28.00;73.00;;;;;;4247508;27;20059;-72
2021/10/19 01:19:51;;;;;;;4.63;3.38;;;28.00;72.90;;;;;;4247433;27;20407;-74
2021/10/19 01:21:57;;;;;;;3.97;2.92;;;28.00;73.00;;;;;;4246737;27;20051;-74
2021/10/19 01:24:05;;;;;;;3.90;3.10;;;28.00;73.00;;;;;;4247344;27;20050;-72
2021/10/19 01:26:14;;;;;;;2.97;2.67;;;28.00;73.00;;;;;;4247047;27;20422;-73
2021/10/19 01:28:19;;;;;;;3.97;3.42;;;28.00;73.00;;;;;;4247267;27;20115;-73
2021/10/19 01:30:23;;;;;;;3.72;3.08;;;28.10;73.10;;;;;;4247298;27;20471;-72
2021/10/19 01:32:31;;;;;;;4.45;3.35;;;28.00;73.00;;;;;;4247074;27;20047;-73
2021/10/19 01:34:34;;;;;;;4.10;3.17;;;28.00;72.90;;;;;;4247340;27;20051;-73
2021/10/19 01:36:38;;;;;;;4.03;3.20;;;28.00;72.90;;;;;;4246944;27;20047;-73
2021/10/19 01:38:41;;;;;;;4.78;2.95;;;28.00;72.90;;;;;;4247110;27;20422;-73
2021/10/19 01:40:51;;;;;;;3.40;3.05;;;28.10;73.00;;;;;;4246866;27;20074;-74
2021/10/19 01:42:54;;;;;;;4.45;3.38;;;28.00;73.00;;;;;;4247034;27;20043;-73
2021/10/19 01:44:57;;;;;;;3.17;2.88;;;28.10;72.90;;;;;;4247340;27;20050;-73
2021/10/19 01:47:05;;;;;;;2.90;2.60;;;28.00;72.90;;;;;;4246596;27;20108;-72
2021/10/19 01:49:13;;;;;;;3.88;2.97;;;28.10;72.90;;;;;;4246790;27;20059;-74
2021/10/19 01:51:16;;;;;;;4.70;3.15;;;28.10;73.00;;;;;;4246731;27;20154;-74
2021/10/19 01:53:25;;;;;;;2.90;2.50;;;28.10;73.00;;;;;;4246781;27;20052;-74
2021/10/19 01:55:34;;;;;;;3.45;2.72;;;28.10;72.90;;;;;;4247089;27;20059;-76
2021/10/19 01:57:37;;;;;;;2.95;2.55;;;28.10;73.00;;;;;;4246803;27;20062;-73
2021/10/19 01:59:40;;;;;;;3.53;2.95;;;28.10;72.90;;;;;;4246914;27;20052;-74
2021/10/19 02:01:50;;;;;;;3.63;2.95;;;28.10;73.40;;;;;;4246259;27;20047;-74
2021/10/19 02:03:53;;;;;;;;;;;28.10;72.80;;;;;;4235809;27;20063;-74
2021/10/19 02:06:01;;;;;;;4.35;3.20;;;28.10;72.90;;;;;;4246237;27;19927;-72
2021/10/19 02:08:05;;;;;;;3.90;2.60;;;28.10;72.80;;;;;;4246655;27;20051;-73
2021/10/19 02:10:14;;;;;;;3.05;2.75;;;28.10;72.90;;;;;;4246898;27;20063;-73
2021/10/19 02:12:22;;;;;;;2.97;2.70;;;28.00;72.80;;;;;;4246495;27;20562;-74
2021/10/19 02:14:25;;;;;;;4.10;3.00;;;28.10;72.90;;;;;;4246254;27;20640;-73
2021/10/19 02:16:33;;;;;;;3.35;2.75;;;28.10;72.90;;;;;;4246775;27;20055;-73
2021/10/19 02:18:42;;;;;;;4.43;2.63;;;28.20;72.80;;;;;;4246614;27;20048;-76
2021/10/19 02:20:50;;;;;;;5.35;3.17;;;28.10;72.90;;;;;;4229569;28;20060;-74
2021/10/19 02:22:53;;;;;;;5.55;2.72;;;28.20;73.50;;;;;;4237789;27;20051;-75
2021/10/19 02:25:01;;;;;;;6.13;2.90;;;28.20;72.80;;;;;;4246400;27;20514;-75
2021/10/19 02:27:06;;;;;;;4.93;3.10;;;28.20;72.70;;;;;;4246390;27;20052;-75
2021/10/19 02:29:14;;;;;;;3.58;2.85;;;28.10;72.80;;;;;;4228438;27;20059;-74
2021/10/19 02:31:22;;;;;;;4.05;2.90;;;28.10;72.80;;;;;;4246314;27;20160;-73
2021/10/19 02:33:30;;;;;;;3.70;2.53;;;28.20;72.80;;;;;;4245980;27;20051;-72
2021/10/19 02:35:33;;;;;;;2.70;2.35;;;28.10;72.90;;;;;;4246194;27;20047;-72
2021/10/19 02:37:37;;;;;;;3.40;2.50;;;28.20;72.80;;;;;;4246226;27;20056;-73
2021/10/19 02:39:40;;;;;;;4.50;2.60;;;28.20;72.90;;;;;;4246100;27;20055;-72
2021/10/19 02:41:48;;;;;;;3.08;2.60;;;28.20;72.80;;;;;;4246037;27;20475;-71
2021/10/19 02:43:53;;;;;;;4.70;2.85;;;28.20;72.90;;;;;;4245661;27;20051;-73
2021/10/19 02:46:01;;;;;;;4.82;2.72;;;28.20;72.80;;;;;;4246247;27;20491;-72
2021/10/19 02:48:04;;;;;;;4.07;2.53;;;28.20;72.80;;;;;;4245827;27;20132;-74
2021/10/19 02:50:13;;;;;;;4.20;3.08;;;28.20;72.60;;;;;;4246077;27;20066;-73
2021/10/19 02:52:16;;;;;;;4.57;2.83;;;28.20;72.70;;;;;;4246242;27;20047;-72
2021/10/19 02:54:24;;;;;;;4.13;2.83;;;28.20;72.70;;;;;;4245742;27;20400;-73
2021/10/19 02:56:32;;;;;;;5.32;3.03;;;28.20;72.60;;;;;;4245763;27;20100;-73
2021/10/19 02:58:35;;;;;;;5.00;2.80;;;28.20;72.70;;;;;;4245833;27;20043;-73
2021/10/19 03:00:44;;;;;;;2.60;2.40;;;28.20;72.80;;;;;;4245886;27;20047;-73
2021/10/19 03:02:52;;;;;;;3.03;2.70;;;28.20;72.80;;;;;;4245772;27;20460;-71
2021/10/19 03:04:55;;;;;;;3.47;2.25;;;28.20;72.70;;;;;;4245393;27;20047;-72
2021/10/19 03:07:03;;;;;;;2.90;2.60;;;28.30;72.80;;;;;;4245681;27;20051;-71
2021/10/19 03:09:06;;;;;;;4.20;2.92;;;28.30;72.90;;;;;;4227306;28;20051;-73
2021/10/19 03:11:14;;;;;;;3.40;2.85;;;28.30;72.80;;;;;;4245855;27;20858;-72
2021/10/19 03:13:22;;;;;;;4.20;3.10;;;28.30;72.80;;;;;;4245736;27;20059;-72
2021/10/19 03:15:47;;;;;;;4.50;2.70;;;28.30;72.70;;;;;;4244065;27;20047;-72
2021/10/19 03:17:55;;;;;;;3.92;2.83;;;28.30;72.70;;;;;;4228515;28;20059;-72
2021/10/19 03:20:03;;;;;;;4.68;2.75;;;28.30;72.80;;;;;;4245184;27;20408;-73
2021/10/19 03:22:06;;;;;;;3.57;2.87;;;28.30;72.60;;;;;;4245584;27;20047;-72
2021/10/19 03:24:14;;;;;;;5.32;3.13;;;28.30;72.70;;;;;;4245284;27;20479;-72
2021/10/19 03:26:22;;;;;;;3.33;2.72;;;28.30;72.70;;;;;;4245547;27;20523;-75
2021/10/19 03:28:26;;;;;;;2.58;2.38;;;28.30;72.80;;;;;;4245620;28;20055;-73
2021/10/19 03:30:34;;;;;;;4.20;2.88;;;28.30;72.80;;;;;;4245303;28;20116;-72
2021/10/19 03:32:38;;;;;;;3.70;2.92;;;28.30;72.80;;;;;;4227798;28;20059;-74
2021/10/19 03:34:41;;;;;;;5.57;2.80;;;28.40;72.90;;;;;;4245339;28;20043;-74
2021/10/19 03:36:44;;;;;;;2.83;2.40;;;28.30;72.70;;;;;;4245685;28;20051;-73
2021/10/19 03:38:52;;;;;;;3.35;3.03;;;28.30;72.70;;;;;;4245309;28;20051;-72
2021/10/19 03:41:00;;;;;;;3.25;2.70;;;28.40;72.70;;;;;;4245071;28;20057;-72
2021/10/19 03:43:05;;;;;;;4.57;2.70;;;28.30;72.60;;;;;;4245531;28;20051;-72
2021/10/19 03:45:10;;;;;;;3.95;2.63;;;28.40;72.80;;;;;;4245213;28;20055;-72
2021/10/19 03:47:13;;;;;;;3.15;2.47;;;28.30;72.70;;;;;;4245403;28;20453;-72
2021/10/19 03:49:22;;;;;;;5.53;2.75;;;28.40;72.70;;;;;;4245687;28;20055;-73
2021/10/19 03:51:30;;;;;;;3.72;2.70;;;28.40;72.70;;;;;;4245160;28;20618;-72
2021/10/19 03:53:33;;;;;;;3.83;2.58;;;28.40;72.80;;;;;;4227191;28;20048;-73
2021/10/19 03:55:43;;;;;;;4.32;2.63;;;28.40;72.80;;;;;;4245432;28;20403;-72
2021/10/19 03:57:51;;;;;;;3.53;2.80;;;28.40;72.70;;;;;;4245337;28;20569;-72
2021/10/19 03:59:54;;;;;;;4.78;2.58;;;28.40;72.70;;;;;;4245224;28;20518;-75
2021/10/19 04:02:02;;;;;;;4.55;2.55;;;28.40;72.80;;;;;;4227504;28;20059;-73
2021/10/19 04:04:10;;;;;;;3.92;2.97;;;28.40;72.60;;;;;;4228439;28;20066;-72
2021/10/19 04:06:19;;;;;;;4.00;2.60;;;28.40;72.80;;;;;;4241673;28;20473;-73
2021/10/19 04:08:22;;;;;;;6.25;2.67;;;28.40;72.60;;;;;;4245031;28;20047;-72
2021/10/19 04:10:25;;;;;;;4.60;2.63;;;28.40;72.70;;;;;;4245357;28;20051;-72
2021/10/19 04:12:33;;;;;;;5.38;2.72;;;28.40;72.80;;;;;;4243826;28;20059;-72
2021/10/19 04:14:36;;;;;;;3.80;2.70;;;28.40;72.80;;;;;;4245511;28;20039;-73
2021/10/19 04:16:44;;;;;;;3.47;2.50;;;28.40;72.90;;;;;;4245043;28;20048;-75
2021/10/19 04:18:52;;;;;;;4.47;2.58;;;28.40;72.70;;;;;;4227851;28;20093;-72
2021/10/19 04:20:55;;;;;;;4.43;2.58;;;28.40;72.80;;;;;;4245076;28;20058;-74
2021/10/19 04:23:04;;;;;;;4.25;2.90;;;28.40;72.60;;;;;;4241275;28;20054;-73
2021/10/19 04:25:13;;;;;;;4.05;2.53;;;28.40;72.70;;;;;;4245418;28;20500;-72
2021/10/19 04:27:16;;;;;;;3.92;2.63;;;28.50;72.60;;;;;;4247436;27;20133;-74
2021/10/19 04:29:24;;;;;;;3.35;2.60;;;28.40;72.50;;;;;;4248222;27;20062;-72
2021/10/19 04:31:32;;;;;;;6.07;2.80;;;28.50;72.70;;;;;;4247984;27;20108;-71
2021/10/19 04:33:35;;;;;;;3.50;2.50;;;28.50;72.70;;;;;;4230144;28;20059;-72
2021/10/19 04:35:43;;;;;;;4.82;3.03;;;28.50;72.70;;;;;;4231193;28;20085;-74
2021/10/19 04:37:46;;;;;;;4.55;2.67;;;28.50;72.70;;;;;;4243146;27;20047;-72
2021/10/19 04:39:56;;;;;;;3.55;2.67;;;28.50;72.70;;;;;;4248248;27;20372;-72
2021/10/19 04:41:59;;;;;;;5.13;2.72;;;28.50;72.80;;;;;;4247481;27;20047;-73
2021/10/19 04:44:02;;;;;;;3.80;2.60;;;28.50;72.70;;;;;;4247921;27;20050;-73
2021/10/19 04:46:05;;;;;;;3.50;2.53;;;28.50;72.70;;;;;;4248337;27;20050;-72
2021/10/19 04:48:14;;;;;;;5.88;3.00;;;28.50;72.70;;;;;;4230520;27;20047;-73
2021/10/19 04:50:17;;;;;;;4.10;2.78;;;28.50;72.70;;;;;;4247809;27;20074;-72
2021/10/19 04:52:26;;;;;;;3.15;2.75;;;28.50;72.60;;;;;;4247785;27;20074;-71
2021/10/19 04:54:33;;;;;;;4.20;2.70;;;28.50;72.50;;;;;;4236850;27;20050;-75
2021/10/19 04:56:43;;;;;;;3.38;2.67;;;28.50;72.60;;;;;;4247865;27;20055;-73
2021/10/19 04:58:51;;;;;;;2.75;2.33;;;28.50;72.60;;;;;;4247462;27;20104;-72
2021/10/19 05:00:59;;;;;;;3.40;2.65;;;28.50;72.60;;;;;;4247671;27;20460;-74
2021/10/19 05:03:02;;;;;;;5.82;2.65;;;28.50;72.60;;;;;;4247387;27;20115;-73
2021/10/19 05:05:05;;;;;;;3.30;2.30;;;28.50;72.70;;;;;;4247565;27;20054;-72
2021/10/19 05:07:13;;;;;;;3.80;2.80;;;28.50;72.60;;;;;;4247849;27;20120;-71
2021/10/19 05:09:16;;;;;;;3.97;2.80;;;28.50;72.60;;;;;;4247272;27;20430;-72
2021/10/19 05:11:24;;;;;;;4.07;2.47;;;28.50;72.60;;;;;;4230796;28;20055;-74
2021/10/19 05:13:33;;;;;;;3.78;2.45;;;28.60;72.60;;;;;;4238809;27;20063;-72
2021/10/19 05:15:37;;;;;;;4.82;2.75;;;28.60;72.60;;;;;;4247484;27;20058;-73
2021/10/19 05:17:44;;;;;;;3.47;2.30;;;28.60;72.60;;;;;;4247549;27;20100;-73
2021/10/19 05:19:47;;;;;;;4.00;2.75;;;28.60;72.50;;;;;;4246461;27;20083;-72
2021/10/19 05:21:50;;;;;;;3.63;2.80;;;28.60;72.60;;;;;;4247425;27;20051;-72
2021/10/19 05:23:53;;;;;;;3.78;2.47;;;28.60;72.70;;;;;;4246799;27;20134;-72
2021/10/19 05:25:56;;;;;;;4.03;2.70;;;28.60;72.50;;;;;;4247135;27;20047;-73
2021/10/19 05:28:05;;;;;;;4.93;2.75;;;28.60;72.60;;;;;;4247243;27;20051;-73
2021/10/19 05:30:14;;;;;;;4.05;2.47;;;28.60;72.70;;;;;;4246322;27;20055;-71
2021/10/19 05:32:22;;;;;;;4.82;2.35;;;28.60;72.60;;;;;;4247110;27;20058;-72
2021/10/19 05:34:30;;;;;;;6.75;2.72;;;28.60;72.50;;;;;;4246750;27;20100;-72
2021/10/19 05:36:33;;;;;;;4.38;2.53;;;28.60;72.50;;;;;;4246924;27;20060;-72
2021/10/19 05:38:42;;;;;;;3.28;2.50;;;28.60;72.50;;;;;;4245882;27;20058;-73
2021/10/19 05:40:51;;;;;;;5.43;2.83;;;28.60;72.50;;;;;;4246794;27;20054;-73
2021/10/19 05:42:54;;;;;;;5.68;3.20;;;28.60;72.40;;;;;;4247694;27;20418;-72
2021/10/19 05:45:02;;;;;;;4.90;2.50;;;28.60;72.40;;;;;;4247124;27;20057;-74
2021/10/19 05:47:06;;;;;;;4.22;2.80;;;28.60;72.40;;;;;;4247100;27;20047;-71
2021/10/19 05:49:14;;;;;;;3.63;2.67;;;28.60;72.40;;;;;;4246528;27;20055;-72
2021/10/19 05:51:22;;;;;;;5.50;2.50;;;28.60;72.40;;;;;;4246735;27;20476;-71
2021/10/19 05:53:30;;;;;;;3.83;2.65;;;28.60;72.40;;;;;;4246805;27;20055;-71
2021/10/19 05:55:33;;;;;;;3.72;2.55;;;28.60;72.40;;;;;;4246788;27;20070;-75
2021/10/19 05:57:36;;;;;;;3.88;2.80;;;28.60;72.30;;;;;;4246667;27;20055;-71
2021/10/19 05:59:44;;;;;;;2.85;2.47;;;28.60;72.30;;;;;;4246621;27;20550;-72
2021/10/19 06:01:52;;;;;;;4.00;2.75;;;28.60;72.30;;;;;;4235831;27;20111;-71
2021/10/19 06:04:01;;;;;;;4.22;2.70;;;28.70;72.30;;;;;;4246681;27;20051;-72
2021/10/19 06:06:07;;;;;;;4.45;2.78;;;28.70;72.30;;;;;;4246388;27;20096;-73
2021/10/19 06:08:10;;;;;;;3.60;2.85;;;28.70;72.30;;;;;;4246478;27;20674;-72
2021/10/19 06:10:21;;;;;;;3.38;2.95;;;28.60;72.10;;;;;;4246443;27;20058;-71
2021/10/19 06:12:24;;;;;;;2.80;2.58;;;28.60;72.30;;;;;;4248471;27;20202;-73
2021/10/19 06:14:33;;;;;;;3.75;3.08;;;28.70;72.30;;;;;;4246581;27;20063;-72
2021/10/19 06:16:39;;;;;;;4.97;2.95;;;28.70;72.30;;;;;;4245068;27;20077;-74
2021/10/19 06:18:51;;;;;;;5.50;2.92;;;28.70;72.30;;;;;;4234659;27;20055;-73
2021/10/19 06:21:08;;;;;;;5.47;3.13;;;28.70;72.20;;;;;;4253295;27;20164;-72
2021/10/19 06:23:16;;;;;;;5.68;2.83;;;28.70;72.10;;;;;;4235436;28;20086;-73
2021/10/19 06:25:19;;;;;;;7.38;3.10;;;28.70;72.00;;;;;;4251310;27;20047;-72
2021/10/19 06:27:29;;;;;;;4.80;3.10;;;28.70;71.90;;;;;;4254005;27;20030;-73
2021/10/19 06:29:35;;;;;;;5.78;3.10;;;28.70;72.00;;;;;;4255332;27;20164;-72
2021/10/19 06:31:42;;;;;;;11.82;3.90;;;28.70;72.00;;;;;;4221374;27;20055;-74
2021/10/19 06:33:56;;;;;;;;;;;28.70;71.90;;;;;;4254755;27;20047;-72
2021/10/19 06:36:04;;;;;;;5.47;3.08;;;28.70;72.00;;;;;;4235845;28;19924;-73
2021/10/19 06:38:09;;;;;;;11.80;3.63;;;28.70;72.00;;;;;;4255660;27;20072;-73
2021/10/19 06:40:15;;;;;;;10.73;3.47;;;28.70;71.90;;;;;;4251716;27;20062;-73
2021/10/19 06:42:26;;;;;;;7.40;3.67;;;28.70;71.90;;;;;;4254722;27;20367;-74
2021/10/19 06:44:35;;;;;;;5.95;3.47;;;28.70;71.80;;;;;;4255179;27;20065;-74
2021/10/19 06:46:54;;;;;;;9.93;3.47;;;28.70;71.70;;;;;;4254328;27;20049;-72
2021/10/19 06:49:02;;;;;;;6.78;3.35;;;28.70;71.60;;;;;;4253115;27;20047;-72
2021/10/19 06:51:06;;;;;;;6.65;4.13;;;28.70;71.70;;;;;;4242859;27;20047;-73
2021/10/19 06:53:12;;;;;;;10.27;3.22;;;28.80;71.90;;;;;;4261045;27;20061;-72
2021/10/19 06:55:22;;;;;;;7.55;3.58;;;28.80;71.70;;;;;;4264232;27;20184;-72
2021/10/19 06:57:27;;;;;;;7.05;3.63;;;28.80;71.70;;;;;;4261694;27;20121;-72
2021/10/19 06:59:35;;;;;;;8.32;3.88;;;28.80;71.70;;;;;;4263098;27;20050;-73
2021/10/19 07:01:43;;;;;;;10.60;3.58;;;28.80;71.60;;;;;;4258246;27;20047;-72
2021/10/19 07:03:51;;;;;;;6.18;3.65;;;28.80;71.60;;;;;;4237107;27;20048;-73
2021/10/19 07:05:55;;;;;;;9.88;3.70;;;28.80;71.60;;;;;;4254612;27;20257;-72
2021/10/19 07:08:05;;;;;;;6.22;3.22;;;28.80;71.60;;;;;;4254647;27;20111;-74
2021/10/19 07:10:16;;;;;;;8.93;3.08;;;28.80;71.60;;;;;;4253630;27;20055;-71
2021/10/19 07:12:20;;;;;;;6.97;3.75;;;28.80;71.50;;;;;;4236114;28;20106;-73
2021/10/19 07:14:29;;;;;;;7.38;3.30;;;28.80;71.40;;;;;;4240038;27;20059;-72
2021/10/19 07:16:37;;;;;;;8.45;3.28;;;28.80;71.40;;;;;;4254854;27;20047;-72
2021/10/19 07:18:44;;;;;;;7.03;3.25;;;28.80;71.30;;;;;;4253869;27;20051;-73
2021/10/19 07:20:48;;;;;;;7.32;3.13;;;28.90;71.40;;;;;;4255599;27;20091;-73
2021/10/19 07:22:51;;;;;;;9.50;3.58;;;28.90;71.40;;;;;;4254739;27;20055;-74
2021/10/19 07:24:54;;;;;;;6.47;3.20;;;28.90;71.30;;;;;;4256390;27;20050;-73
2021/10/19 07:27:04;;;;;;;8.55;3.35;;;28.80;71.30;;;;;;4262743;27;20050;-72
2021/10/19 07:29:10;;;;;;;5.70;3.20;;;28.90;71.30;;;;;;4257605;27;20043;-72
2021/10/19 07:31:14;;;;;;;11.20;3.42;;;28.90;71.30;;;;;;4261191;27;20043;-73
2021/10/19 07:33:22;;;;;;;8.45;3.40;;;28.90;71.20;;;;;;4255698;27;20099;-74
2021/10/19 07:35:27;;;;;;;5.32;3.55;;;28.90;71.20;;;;;;4255378;27;20065;-72
2021/10/19 07:37:35;;;;;;;6.65;3.25;;;28.90;71.00;;;;;;4259689;27;20043;-73
2021/10/19 07:39:38;;;;;;;6.78;3.30;;;28.90;71.10;;;;;;4259278;27;20047;-72
2021/10/19 07:41:41;;;;;;;7.10;3.58;;;28.90;70.90;;;;;;4260310;27;20054;-72
2021/10/19 07:43:51;;;;;;;5.90;3.13;;;29.00;71.00;;;;;;4256997;27;20234;-72
2021/10/19 07:45:59;;;;;;;6.28;2.90;;;28.90;70.90;;;;;;4243885;28;20054;-72
2021/10/19 07:48:02;;;;;;;7.00;3.08;;;28.90;70.80;;;;;;4261911;27;20089;-73
2021/10/19 07:50:06;;;;;;;5.07;3.28;;;28.90;70.70;;;;;;4259378;27;20676;-74
2021/10/19 07:52:15;;;;;;;7.75;3.65;;;29.00;70.70;;;;;;4253106;27;20051;-71
2021/10/19 07:54:23;;;;;;;7.20;3.45;;;29.00;70.50;;;;;;4259643;27;20051;-73
2021/10/19 07:56:26;;;;;;;5.03;3.30;;;29.00;71.20;;;;;;4256561;27;20124;-72
2021/10/19 07:58:35;;;;;;;7.80;3.95;;;29.00;70.50;;;;;;4262612;27;20072;-72
2021/10/19 08:00:44;;;;;;;7.38;3.72;;;29.00;70.40;;;;;;4257648;27;20047;-72
2021/10/19 08:02:53;;;;;;;7.85;3.70;;;29.00;70.40;;;;;;4260123;27;20058;-74
2021/10/19 08:04:56;;;;;;;6.72;3.88;;;29.00;70.20;;;;;;4260855;27;20061;-72
2021/10/19 08:07:00;;;;;;;7.63;3.63;;;29.00;70.10;;;;;;4263926;27;20089;-74
2021/10/19 08:09:03;;;;;;;8.50;3.75;;;29.00;70.20;;;;;;4257996;27;20239;-72
2021/10/19 08:11:11;;;;;;;6.03;3.72;;;29.00;70.20;;;;;;4247448;27;20078;-72
2021/10/19 08:13:17;;;;;;;7.60;3.78;;;29.00;70.00;;;;;;4257833;27;20055;-73
2021/10/19 08:15:20;;;;;;;6.05;3.53;;;29.10;70.40;;;;;;4239893;28;20048;-71
2021/10/19 08:17:25;;;;;;;7.53;3.67;;;29.10;70.20;;;;;;4257210;27;20047;-71
2021/10/19 08:19:33;;;;;;;12.77;3.88;;;29.10;70.20;;;;;;4257642;27;20048;-73
2021/10/19 08:21:36;;;;;;;10.07;3.70;;;29.10;70.20;;;;;;4238780;27;20052;-71
2021/10/19 08:23:44;;;;;;;9.50;4.22;;;29.10;70.20;;;;;;4255104;27;20055;-72
2021/10/19 08:25:47;;;;;;;10.43;3.63;;;29.10;70.10;;;;;;4255996;27;20059;-72
2021/10/19 08:27:56;;;;;;;9.93;3.90;;;29.20;70.30;;;;;;4256276;27;20058;-72
2021/10/19 08:29:59;;;;;;;16.30;3.97;;;29.20;70.40;;;;;;4256448;27;20054;-71
2021/10/19 08:32:02;;;;;;;18.65;4.75;;;29.20;70.30;;;;;;4257145;27;20039;-72
2021/10/19 08:34:06;;;;;;;12.82;3.80;;;29.20;70.30;;;;;;4256819;27;20043;-73
2021/10/19 08:36:09;;;;;;;10.55;3.85;;;29.20;70.30;;;;;;4256913;27;20049;-71
2021/10/19 08:38:13;;;;;;;14.93;3.95;;;29.20;70.30;;;;;;4252771;27;20059;-71
2021/10/19 08:40:17;;;;;;;13.05;3.95;;;29.20;70.20;;;;;;4251143;27;20379;-71
2021/10/19 08:42:25;;;;;;;11.32;4.32;;;29.20;70.30;;;;;;4257195;27;20051;-72
2021/10/19 08:44:33;;;;;;;14.07;4.20;;;29.20;70.30;;;;;;4257364;27;20071;-72
2021/10/19 08:46:36;;;;;;;17.02;4.40;;;29.30;70.30;;;;;;4255794;27;20069;-72
2021/10/19 08:48:44;;;;;;;23.45;4.38;;;29.20;70.00;;;;;;4240599;28;20112;-73
2021/10/19 08:50:57;;;;;;;10.65;4.05;;;29.20;70.00;;;;;;4257211;27;20047;-73
2021/10/19 08:53:00;;;;;;;10.25;4.20;;;29.20;70.00;;;;;;4257511;27;20046;-72
2021/10/19 08:55:05;;;;;;;35.28;5.40;;;29.20;70.00;;;;;;4256382;27;20384;-72
2021/10/19 08:57:14;;;;;;;25.83;4.75;;;29.20;70.00;;;;;;4253946;27;20065;-72
2021/10/19 08:59:21;;;;;;;30.88;4.57;;;29.20;69.80;;;;;;4257325;27;20055;-73
2021/10/19 09:01:32;;;;;;;36.83;8.25;;;29.20;69.90;;;;;;4257033;27;20047;-73
2021/10/19 09:03:44;;;;;;;359.48;38.30;;;29.20;69.80;;;;;;4252711;27;20096;-72
2021/10/19 09:05:48;;;;;;;203.55;24.42;;;29.20;69.80;;;;;;4249858;27;20054;-72
2021/10/19 09:07:58;;;;;;;86.70;13.85;;;29.20;69.70;;;;;;4246659;27;20092;-74
2021/10/19 09:10:01;;;;;;;58.38;11.45;;;29.20;69.70;;;;;;4247798;27;20058;-71
2021/10/19 09:12:09;;;;;;;47.42;9.85;;;29.10;69.60;;;;;;4247774;27;20051;-75
2021/10/19 09:14:14;;;;;;;41.10;9.05;;;29.10;69.40;;;;;;4246365;27;20121;-73
2021/10/19 09:16:36;;;;;;;26.27;6.57;;;29.10;69.40;;;;;;4247430;27;20047;-72
2021/10/19 09:18:43;;;;;;;21.02;5.68;;;29.10;69.20;;;;;;4252112;27;20469;-73
2021/10/19 09:20:53;;;;;;;35.88;6.18;;;29.00;69.50;;;;;;4251998;27;20055;-74
2021/10/19 09:22:59;;;;;;;23.08;5.10;;;29.00;69.50;;;;;;4249412;27;20560;-71
2021/10/19 09:25:08;;;;;;;21.50;4.85;;;29.00;69.70;;;;;;4247988;27;20052;-73
2021/10/19 09:27:14;;;;;;;63.30;7.47;;;29.00;69.40;;;;;;4246915;27;20051;-71
2021/10/19 09:29:18;;;;;;;26.00;5.18;;;29.00;69.60;;;;;;4229249;27;20044;-71
2021/10/19 09:31:21;;;;;;;33.55;5.72;;;29.00;69.60;;;;;;4247649;27;20509;-73
2021/10/19 09:33:24;;;;;;;25.77;4.63;;;29.00;69.70;;;;;;4244222;27;20411;-71
2021/10/19 09:35:32;;;;;;;27.70;4.85;;;29.00;69.60;;;;;;4247512;27;20100;-73
2021/10/19 09:37:38;;;;;;;15.93;4.70;;;29.00;69.70;;;;;;4247329;27;20051;-72
2021/10/19 09:39:48;;;;;;;207.77;17.52;;;29.00;69.50;;;;;;4247484;27;20124;-72
2021/10/19 09:41:51;;;;;;;19.92;5.63;;;29.00;69.60;;;;;;4246831;27;20047;-73
2021/10/19 09:43:54;;;;;;;24.98;4.80;;;29.00;69.50;;;;;;4247299;27;20055;-73
2021/10/19 09:46:01;;;;;;;16.98;4.80;;;29.00;69.30;;;;;;4245739;27;20043;-71
2021/10/19 09:48:06;;;;;;;11.38;4.22;;;29.00;69.50;;;;;;4246979;27;20116;-72
2021/10/19 09:50:14;;;;;;;9.77;4.00;;;29.00;69.30;;;;;;4244489;27;20057;-73
2021/10/19 09:52:23;;;;;;;15.43;4.15;;;29.00;69.30;;;;;;4229040;27;20055;-71
2021/10/19 09:54:29;;;;;;;14.15;4.53;;;29.00;69.40;;;;;;4228526;28;20657;-71
2021/10/19 09:56:39;;;;;;;10.85;4.50;;;29.00;69.60;;;;;;4243916;27;20043;-72
2021/10/19 09:58:42;;;;;;;12.60;4.20;;;29.00;69.50;;;;;;4246656;27;20051;-71
2021/10/19 10:00:51;;;;;;;16.77;4.78;;;28.90;69.40;;;;;;4246782;27;20066;-72
2021/10/19 10:02:54;;;;;;;10.30;5.17;;;28.90;69.50;;;;;;4246515;27;20050;-71
2021/10/19 10:05:04;;;;;;;19.60;4.38;;;28.90;69.40;;;;;;4246764;27;20055;-72
2021/10/19 10:07:13;;;;;;;9.55;4.40;;;28.80;69.50;;;;;;4247011;27;20054;-71
2021/10/19 10:09:23;;;;;;;17.00;4.20;;;28.80;69.50;;;;;;4246139;27;20050;-72
2021/10/19 10:11:26;;;;;;;6.60;3.60;;;28.80;69.70;;;;;;4230106;28;20048;-71
2021/10/19 10:13:36;;;;;;;8.13;3.75;;;28.80;69.60;;;;;;4238683;27;20047;-71
2021/10/19 10:15:44;;;;;;;545.47;37.60;;;28.80;69.90;;;;;;4246666;27;20058;-70
2021/10/19 10:18:00;;;;;;;134.50;11.20;;;28.80;69.90;;;;;;4229072;27;20134;-70
2021/10/19 10:20:08;;;;;;;76.30;9.60;;;28.80;69.90;;;;;;4225809;28;20055;-72
2021/10/19 10:22:15;;;;;;;44.28;8.00;;;28.80;70.00;;;;;;4246684;27;20054;-71
2021/10/19 10:24:27;;;;;;;38.92;6.40;;;28.80;70.10;;;;;;4245431;27;20062;-72
2021/10/19 10:26:33;;;;;;;25.10;5.72;;;28.80;69.90;;;;;;4246677;27;20127;-71
2021/10/19 10:28:37;;;;;;;14.85;4.20;;;28.70;69.80;;;;;;4246291;27;20135;-70
2021/10/19 10:30:41;;;;;;;17.30;4.47;;;28.70;69.90;;;;;;4246096;27;20510;-69
2021/10/19 10:32:50;;;;;;;11.80;4.95;;;28.70;70.20;;;;;;4246316;27;20051;-70
2021/10/19 10:35:00;;;;;;;8.90;3.93;;;28.70;70.00;;;;;;4246227;27;20816;-74
2021/10/19 10:37:09;;;;;;;6.18;3.97;;;28.70;70.10;;;;;;4246379;27;20055;-73
2021/10/19 10:39:13;;;;;;;7.40;4.00;;;28.70;70.00;;;;;;4246163;27;20050;-72
2021/10/19 10:41:21;;;;;;;8.30;3.80;;;28.80;70.10;;;;;;4245727;27;20054;-72
2021/10/19 10:43:27;;;;;;;9.05;4.18;;;28.80;70.00;;;;;;4246025;27;20849;-72
2021/10/19 10:45:33;;;;;;;5.30;3.47;;;28.80;70.80;;;;;;4245148;27;20054;-71
2021/10/19 10:47:44;;;;;;;8.07;4.20;;;28.80;70.10;;;;;;4229250;28;20052;-73
2021/10/19 10:49:48;;;;;;;10.65;4.35;;;28.90;70.20;;;;;;4238102;27;20043;-73
2021/10/19 10:51:51;;;;;;;8.65;4.03;;;28.80;70.20;;;;;;4245604;27;20143;-70
2021/10/19 10:54:00;;;;;;;6.43;4.18;;;28.90;70.00;;;;;;4228695;27;20051;-72
2021/10/19 10:56:04;;;;;;;8.68;3.88;;;28.80;69.90;;;;;;4245652;27;20100;-71